createdAt,value
2017-04-04T00:00:44.327Z,0
2017-04-04T00:01:44.290Z,0
2017-04-04T00:02:44.683Z,0
2017-04-04T00:03:45.029Z,0
2017-04-04T00:04:45.053Z,0
2017-04-04T00:05:45.133Z,0
2017-04-04T00:06:44.739Z,0
2017-04-04T00:07:44.828Z,0
2017-04-04T00:08:44.857Z,0
2017-04-04T00:09:45.189Z,0
2017-04-04T00:10:45.222Z,0
2017-04-04T00:11:45.196Z,0
2017-04-04T00:12:44.652Z,0
2017-04-04T00:13:45.348Z,0
2017-04-04T00:14:45.329Z,0
2017-04-04T00:15:45.358Z,0
2017-04-04T00:16:45.013Z,0
2017-04-04T00:17:45.411Z,0
2017-04-04T00:18:44.816Z,0
2017-04-04T00:19:45.153Z,0
2017-04-04T00:20:45.498Z,0
2017-04-04T00:21:45.467Z,0
2017-04-04T00:22:45.543Z,0
2017-04-04T00:23:45.580Z,0
2017-04-04T00:24:44.979Z,0
2017-04-04T00:25:45.322Z,0
2017-04-04T00:26:45.596Z,0
2017-04-04T00:27:45.682Z,0
2017-04-04T00:28:45.724Z,0
2017-04-04T00:29:45.429Z,0
2017-04-04T00:30:45.457Z,0
2017-04-04T00:31:46.054Z,0
2017-04-04T00:32:45.516Z,0
2017-04-04T00:33:45.543Z,0
2017-04-04T00:34:45.877Z,0
2017-04-04T00:35:45.905Z,0
2017-04-04T00:36:46.188Z,0
2017-04-04T00:37:45.957Z,0
2017-04-04T00:38:45.715Z,0
2017-04-04T00:39:45.708Z,0
2017-04-04T00:40:46.036Z,0
2017-04-04T00:41:45.685Z,0
2017-04-04T00:42:46.099Z,0
2017-04-04T00:43:45.815Z,0
2017-04-04T00:44:45.843Z,0
2017-04-04T00:45:45.877Z,0
2017-04-04T00:46:46.452Z,0
2017-04-04T00:47:45.933Z,0
2017-04-04T00:48:45.957Z,0
2017-04-04T00:49:46.302Z,0
2017-04-04T00:50:46.323Z,0
2017-04-04T00:51:45.964Z,0
2017-04-04T00:52:46.054Z,0
2017-04-04T00:53:46.090Z,0
2017-04-04T00:54:46.119Z,0
2017-04-04T00:55:46.144Z,0
2017-04-04T00:56:46.735Z,0
2017-04-04T00:57:46.501Z,0
2017-04-04T00:58:46.537Z,0
2017-04-04T00:59:46.257Z,0
2017-04-04T01:00:46.602Z,0
2017-04-04T01:01:46.560Z,0
2017-04-04T01:02:46.339Z,0
2017-04-04T01:03:46.049Z,0
2017-04-04T01:04:46.384Z,0
2017-04-04T01:05:46.107Z,0
2017-04-04T01:06:46.695Z,0
2017-04-04T01:07:46.477Z,0
2017-04-04T01:08:46.810Z,0
2017-04-04T01:09:46.838Z,0
2017-04-04T01:10:46.236Z,0
2017-04-04T01:11:46.839Z,0
2017-04-04T01:12:46.915Z,0
2017-04-04T01:13:46.944Z,0
2017-04-04T01:14:46.978Z,0
2017-04-04T01:15:46.682Z,0
2017-04-04T01:16:46.970Z,0
2017-04-04T01:17:47.051Z,0
2017-04-04T01:18:47.085Z,0
2017-04-04T01:19:45.861Z,0
2017-04-04T01:20:46.509Z,0
2017-04-04T01:21:46.543Z,0
2017-04-04T01:22:47.443Z,0
2017-04-04T01:23:47.217Z,0
2017-04-04T01:24:46.929Z,0
2017-04-04T01:25:47.284Z,0
2017-04-04T01:26:47.298Z,0
2017-04-04T01:27:47.276Z,0
2017-04-04T01:28:47.041Z,0
2017-04-04T01:29:47.389Z,0
2017-04-04T01:30:46.791Z,0
2017-04-04T01:31:47.434Z,0
2017-04-04T01:32:47.099Z,0
2017-04-04T01:33:47.492Z,0
2017-04-04T01:34:47.213Z,0
2017-04-04T01:35:47.553Z,0
2017-04-04T01:36:47.585Z,0
2017-04-04T01:37:47.853Z,0
2017-04-04T01:38:47.316Z,0
2017-04-04T01:39:47.040Z,0
2017-04-04T01:40:47.689Z,0
2017-04-04T01:41:47.714Z,0
2017-04-04T01:42:47.367Z,0
2017-04-04T01:43:47.764Z,0
2017-04-04T01:44:47.800Z,0
2017-04-04T01:45:47.557Z,0
2017-04-04T01:46:47.538Z,0
2017-04-04T01:47:47.806Z,0
2017-04-04T01:48:47.279Z,0
2017-04-04T01:49:47.932Z,0
2017-04-04T01:50:47.957Z,0
2017-04-04T01:51:47.669Z,0
2017-04-04T01:52:47.634Z,0
2017-04-04T01:53:47.727Z,0
2017-04-04T01:54:47.447Z,0
2017-04-04T01:55:47.479Z,0
2017-04-04T01:56:47.802Z,0
2017-04-04T01:57:48.400Z,0
2017-04-04T01:58:48.175Z,0
2017-04-04T01:59:47.574Z,0
2017-04-04T02:00:48.233Z,0
2017-04-04T02:01:47.633Z,0
2017-04-04T02:02:48.233Z,0
2017-04-04T02:03:47.998Z,0
2017-04-04T02:04:48.335Z,0
2017-04-04T02:05:48.051Z,0
2017-04-04T02:06:47.769Z,0
2017-04-04T02:07:48.366Z,0
2017-04-04T02:08:48.450Z,0
2017-04-04T02:09:48.160Z,0
2017-04-04T02:10:48.188Z,0
2017-04-04T02:11:47.905Z,0
2017-04-04T02:12:48.535Z,0
2017-04-04T02:13:47.966Z,0
2017-04-04T02:14:48.306Z,0
2017-04-04T02:15:48.328Z,0
2017-04-04T02:16:48.668Z,0
2017-04-04T02:17:48.633Z,0
2017-04-04T02:18:48.402Z,0
2017-04-04T02:19:48.736Z,0
2017-04-04T02:20:48.775Z,0
2017-04-04T02:21:48.175Z,0
2017-04-04T02:22:48.772Z,0
2017-04-04T02:23:48.541Z,0
2017-04-04T02:24:48.913Z,0
2017-04-04T02:25:48.911Z,0
2017-04-04T02:26:48.634Z,0
2017-04-04T02:27:48.908Z,0
2017-04-04T02:28:48.357Z,0
2017-04-04T02:29:48.698Z,0
2017-04-04T02:30:48.427Z,0
2017-04-04T02:31:48.452Z,0
2017-04-04T02:32:49.360Z,0
2017-04-04T02:33:48.492Z,0
2017-04-04T02:34:48.537Z,0
2017-04-04T02:35:48.561Z,0
2017-04-04T02:36:48.900Z,0
2017-04-04T02:37:48.857Z,0
2017-04-04T02:38:48.950Z,0
2017-04-04T02:39:48.977Z,0
2017-04-04T02:40:49.014Z,0
2017-04-04T02:41:49.342Z,0
2017-04-04T02:42:49.311Z,0
2017-04-04T02:43:49.395Z,0
2017-04-04T02:44:48.812Z,0
2017-04-04T02:45:49.141Z,0
2017-04-04T02:46:49.166Z,0
2017-04-04T02:47:49.545Z,0
2017-04-04T02:48:49.528Z,0
2017-04-04T02:49:49.250Z,0
2017-04-04T02:50:48.970Z,0
2017-04-04T02:51:49.301Z,0
2017-04-04T02:52:49.939Z,0
2017-04-04T02:53:49.672Z,0
2017-04-04T02:54:49.383Z,0
2017-04-04T02:55:49.421Z,0
2017-04-04T02:56:49.439Z,0
2017-04-04T02:57:49.155Z,0
2017-04-04T02:59:48.680Z,0
2017-04-04T03:00:49.864Z,0
2017-04-04T03:01:49.890Z,0
2017-04-04T03:02:49.602Z,0
2017-04-04T03:03:49.628Z,0
2017-04-04T03:04:50.275Z,0
2017-04-04T03:05:49.681Z,0
2017-04-04T03:06:49.754Z,0
2017-04-04T03:07:50.055Z,0
2017-04-04T03:08:49.756Z,0
2017-04-04T03:09:50.404Z,0
2017-04-04T03:10:49.856Z,0
2017-04-04T03:11:49.865Z,0
2017-04-04T03:12:49.557Z,0
2017-04-04T03:13:49.898Z,0
2017-04-04T03:14:50.535Z,0
2017-04-04T03:15:50.268Z,0
2017-04-04T03:16:50.305Z,0
2017-04-04T03:17:50.016Z,0
2017-04-04T03:18:50.350Z,0
2017-04-04T03:19:50.307Z,0
2017-04-04T03:20:50.406Z,0
2017-04-04T03:21:50.429Z,0
2017-04-04T03:22:50.469Z,0
2017-04-04T03:23:49.858Z,0
2017-04-04T03:24:50.447Z,0
2017-04-04T03:25:50.539Z,0
2017-04-04T03:26:50.553Z,0
2017-04-04T03:27:50.589Z,0
2017-04-04T03:28:50.625Z,0
2017-04-04T03:29:50.266Z,0
2017-04-04T03:30:50.362Z,0
2017-04-04T03:31:50.068Z,0
2017-04-04T03:32:50.413Z,0
2017-04-04T03:33:50.489Z,0
2017-04-04T03:34:51.039Z,0
2017-04-04T03:35:50.186Z,0
2017-04-04T03:36:50.523Z,0
2017-04-04T03:37:50.872Z,0
2017-04-04T03:38:50.893Z,0
2017-04-04T03:39:51.168Z,0
2017-04-04T03:40:50.950Z,0
2017-04-04T03:41:50.983Z,0
2017-04-04T03:42:51.000Z,0
2017-04-04T03:43:51.026Z,0
2017-04-04T03:44:51.305Z,0
2017-04-04T03:45:51.078Z,0
2017-04-04T03:46:50.803Z,0
2017-04-04T03:47:50.504Z,0
2017-04-04T03:48:50.861Z,0
2017-04-04T03:49:50.605Z,0
2017-04-04T03:50:51.150Z,0
2017-04-04T03:51:51.243Z,0
2017-04-04T03:52:50.963Z,0
2017-04-04T03:53:50.989Z,0
2017-04-04T03:54:50.702Z,0
2017-04-04T03:55:51.604Z,0
2017-04-04T03:56:51.067Z,0
2017-04-04T03:57:51.099Z,0
2017-04-04T03:58:51.117Z,0
2017-04-04T03:59:51.145Z,0
2017-04-04T04:00:51.742Z,0
2017-04-04T04:01:51.198Z,0
2017-04-04T04:02:51.543Z,0
2017-04-04T04:03:51.252Z,0
2017-04-04T04:04:51.284Z,0
2017-04-04T04:05:51.558Z,0
2017-04-04T04:06:51.335Z,0
2017-04-04T04:07:51.059Z,0
2017-04-04T04:08:51.391Z,0
2017-04-04T04:09:51.097Z,0
2017-04-04T04:10:51.694Z,0
2017-04-04T04:11:51.785Z,0
2017-04-04T04:12:51.504Z,0
2017-04-04T04:13:51.843Z,0
2017-04-04T04:14:51.556Z,0
2017-04-04T04:15:51.837Z,0
2017-04-04T04:16:51.606Z,0
2017-04-04T04:17:51.326Z,0
2017-04-04T04:18:51.655Z,0
2017-04-04T04:19:51.687Z,0
2017-04-04T04:20:52.287Z,0
2017-04-04T04:21:52.059Z,0
2017-04-04T04:22:51.770Z,0
2017-04-04T04:23:52.119Z,0
2017-04-04T04:24:52.139Z,0
2017-04-04T04:25:52.417Z,0
2017-04-04T04:26:51.556Z,0
2017-04-04T04:27:52.214Z,0
2017-04-04T04:28:51.931Z,0
2017-04-04T04:29:52.275Z,0
2017-04-04T04:30:52.553Z,0
2017-04-04T04:31:52.026Z,0
2017-04-04T04:32:51.726Z,0
2017-04-04T04:33:52.067Z,0
2017-04-04T04:34:52.411Z,0
2017-04-04T04:35:52.375Z,0
2017-04-04T04:36:51.521Z,0
2017-04-04T04:37:52.187Z,0
2017-04-04T04:38:52.187Z,0
2017-04-04T04:39:52.227Z,0
2017-04-04T04:40:52.819Z,0
2017-04-04T04:41:52.280Z,0
2017-04-04T04:42:52.300Z,0
2017-04-04T04:43:52.338Z,0
2017-04-04T04:44:52.359Z,0
2017-04-04T04:45:52.024Z,0
2017-04-04T04:46:52.417Z,0
2017-04-04T04:47:52.437Z,0
2017-04-04T04:48:52.793Z,0
2017-04-04T04:49:52.806Z,0
2017-04-04T04:50:52.775Z,0
2017-04-04T04:51:52.545Z,0
2017-04-04T04:52:52.576Z,0
2017-04-04T04:53:52.913Z,0
2017-04-04T04:54:52.943Z,0
2017-04-04T04:55:53.224Z,0
2017-04-04T04:56:52.716Z,0
2017-04-04T04:57:52.401Z,0
2017-04-04T04:58:52.745Z,0
2017-04-04T04:59:52.466Z,0
2017-04-04T05:00:52.739Z,0
2017-04-04T05:01:52.830Z,0
2017-04-04T05:02:52.534Z,0
2017-04-04T05:03:52.875Z,0
2017-04-04T05:04:52.593Z,0
2017-04-04T05:05:53.187Z,0
2017-04-04T05:06:52.953Z,0
2017-04-04T05:07:52.341Z,0
2017-04-04T05:08:53.326Z,0
2017-04-04T05:09:52.729Z,0
2017-04-04T05:10:53.006Z,0
2017-04-04T05:11:53.086Z,0
2017-04-04T05:12:53.434Z,0
2017-04-04T05:13:53.452Z,0
2017-04-04T05:14:53.481Z,0
2017-04-04T05:15:53.657Z,0
2017-04-04T05:16:53.223Z,0
2017-04-04T05:17:53.572Z,0
2017-04-04T05:18:53.592Z,0
2017-04-04T05:19:52.681Z,0
2017-04-04T05:20:53.581Z,0
2017-04-04T05:21:53.357Z,0
2017-04-04T05:22:53.388Z,0
2017-04-04T05:23:53.399Z,0
2017-04-04T05:24:53.744Z,0
2017-04-04T05:25:53.717Z,0
2017-04-04T05:26:53.185Z,0
2017-04-04T05:27:53.215Z,0
2017-04-04T05:28:53.231Z,0
2017-04-04T05:29:53.572Z,0
2017-04-04T05:30:54.163Z,0
2017-04-04T05:31:53.934Z,0
2017-04-04T05:32:53.963Z,0
2017-04-04T05:33:53.986Z,0
2017-04-04T05:34:53.706Z,0
2017-04-04T05:35:54.306Z,0
2017-04-04T05:36:53.453Z,0
2017-04-04T05:37:53.478Z,0
2017-04-04T05:38:53.815Z,0
2017-04-04T05:39:53.525Z,0
2017-04-04T05:40:54.424Z,0
2017-04-04T05:41:53.577Z,0
2017-04-04T05:42:53.602Z,0
2017-04-04T05:43:53.631Z,5
2017-04-04T05:44:54.275Z,5
2017-04-04T05:45:54.257Z,5
2017-04-04T05:46:54.338Z,5
2017-04-04T05:47:54.090Z,5
2017-04-04T05:48:54.087Z,5
2017-04-04T05:49:54.109Z,5
2017-04-04T05:50:54.700Z,5
2017-04-04T05:51:54.161Z,5
2017-04-04T05:52:54.193Z,5
2017-04-04T05:53:54.220Z,5
2017-04-04T05:54:54.236Z,5
2017-04-04T05:55:54.857Z,5
2017-04-04T05:56:54.614Z,5
2017-04-04T05:57:54.013Z,5
2017-04-04T05:58:54.354Z,5
2017-04-04T05:59:54.702Z,5
2017-04-04T06:00:54.660Z,5
2017-04-04T06:01:54.433Z,5
2017-04-04T06:02:54.154Z,5
2017-04-04T06:03:54.795Z,5
2017-04-04T06:04:54.204Z,5
2017-04-04T06:05:54.791Z,5
2017-04-04T06:06:54.577Z,5
2017-04-04T06:07:54.598Z,5
2017-04-04T06:08:53.998Z,5
2017-04-04T06:09:54.648Z,5
2017-04-04T06:10:55.236Z,5
2017-04-04T06:11:55.018Z,5
2017-04-04T06:12:55.048Z,5
2017-04-04T06:13:54.446Z,5
2017-04-04T06:14:54.786Z,5
2017-04-04T06:15:55.366Z,5
2017-04-04T06:16:55.140Z,5
2017-04-04T06:17:55.213Z,5
2017-04-04T06:18:54.886Z,5
2017-04-04T06:19:54.606Z,5
2017-04-04T06:20:55.495Z,5
2017-04-04T06:21:54.974Z,5
2017-04-04T06:22:55.312Z,5
2017-04-04T06:23:55.025Z,10
2017-04-04T06:24:55.043Z,10
2017-04-04T06:25:55.325Z,10
2017-04-04T06:26:55.416Z,10
2017-04-04T06:27:55.130Z,10
2017-04-04T06:28:54.849Z,10
2017-04-04T06:29:55.498Z,10
2017-04-04T06:30:55.790Z,10
2017-04-04T06:31:54.919Z,10
2017-04-04T06:32:55.571Z,10
2017-04-04T06:33:55.600Z,10
2017-04-04T06:34:55.009Z,10
2017-04-04T06:35:55.278Z,10
2017-04-04T06:36:55.387Z,10
2017-04-04T06:37:55.077Z,10
2017-04-04T06:38:55.112Z,10
2017-04-04T06:39:55.138Z,10
2017-04-04T06:40:55.420Z,10
2017-04-04T06:41:55.819Z,10
2017-04-04T06:42:55.840Z,10
2017-04-04T06:43:55.565Z,10
2017-04-04T06:44:54.965Z,10
2017-04-04T06:45:56.193Z,10
2017-04-04T06:46:55.950Z,10
2017-04-04T06:47:55.983Z,10
2017-04-04T06:48:56.004Z,10
2017-04-04T06:49:55.716Z,10
2017-04-04T06:50:56.358Z,10
2017-04-04T06:51:56.083Z,10
2017-04-04T06:52:56.110Z,10
2017-04-04T06:53:55.507Z,10
2017-04-04T06:54:55.546Z,10
2017-04-04T06:55:55.881Z,10
2017-04-04T06:56:56.485Z,10
2017-04-04T06:57:55.627Z,10
2017-04-04T06:58:56.279Z,10
2017-04-04T06:59:55.991Z,10
2017-04-04T07:00:56.008Z,10
2017-04-04T07:01:56.617Z,10
2017-04-04T07:02:56.070Z,10
2017-04-04T07:03:56.419Z,10
2017-04-04T07:04:56.432Z,10
2017-04-04T07:05:56.461Z,15
2017-04-04T07:06:56.746Z,15
2017-04-04T07:07:56.515Z,15
2017-04-04T07:08:55.923Z,15
2017-04-04T07:09:56.568Z,15
2017-04-04T07:10:56.295Z,15
2017-04-04T07:11:56.878Z,15
2017-04-04T07:12:56.644Z,15
2017-04-04T07:13:56.367Z,15
2017-04-04T07:14:56.083Z,15
2017-04-04T07:15:56.420Z,15
2017-04-04T07:16:56.700Z,15
2017-04-04T07:17:56.473Z,15
2017-04-04T07:18:56.503Z,15
2017-04-04T07:19:56.532Z,15
2017-04-04T07:20:56.549Z,15
2017-04-04T07:21:56.825Z,15
2017-04-04T07:22:56.622Z,15
2017-04-04T07:23:56.682Z,15
2017-04-04T07:24:56.992Z,15
2017-04-04T07:25:57.007Z,15
2017-04-04T07:26:56.965Z,15
2017-04-04T07:27:56.746Z,15
2017-04-04T07:28:56.461Z,15
2017-04-04T07:29:57.118Z,15
2017-04-04T07:30:55.931Z,15
2017-04-04T07:31:57.416Z,15
2017-04-04T07:32:56.876Z,15
2017-04-04T07:33:57.213Z,15
2017-04-04T07:34:57.255Z,15
2017-04-04T07:35:56.650Z,20
2017-04-04T07:36:57.229Z,20
2017-04-04T07:37:57.026Z,20
2017-04-04T07:38:57.033Z,20
2017-04-04T07:39:56.758Z,25
2017-04-04T07:40:57.086Z,25
2017-04-04T07:41:57.683Z,30
2017-04-04T07:42:57.156Z,35
2017-04-04T07:43:57.176Z,40
2017-04-04T07:44:57.209Z,45
2017-04-04T07:45:57.222Z,50
2017-04-04T07:46:57.200Z,55
2017-04-04T07:47:57.288Z,60
2017-04-04T07:48:56.684Z,65
2017-04-04T07:49:57.342Z,65
2017-04-04T07:50:57.682Z,65
2017-04-04T07:51:57.647Z,60
2017-04-04T07:52:57.727Z,60
2017-04-04T07:53:57.457Z,55
2017-04-04T07:54:57.773Z,55
2017-04-04T07:55:57.508Z,55
2017-04-04T07:56:58.090Z,55
2017-04-04T07:57:57.867Z,55
2017-04-04T07:58:57.582Z,55
2017-04-04T07:59:57.298Z,55
2017-04-04T08:00:57.326Z,50
2017-04-04T08:01:57.920Z,45
2017-04-04T08:02:57.693Z,45
2017-04-04T08:03:57.719Z,40
2017-04-04T08:04:57.436Z,35
2017-04-04T08:05:58.096Z,35
2017-04-04T08:06:58.059Z,30
2017-04-04T08:07:57.522Z,30
2017-04-04T08:08:57.866Z,30
2017-04-04T08:09:58.197Z,30
2017-04-04T08:10:58.230Z,25
2017-04-04T08:11:58.509Z,25
2017-04-04T08:12:57.975Z,25
2017-04-04T08:13:58.311Z,25
2017-04-04T08:14:58.338Z,25
2017-04-04T08:15:58.372Z,25
2017-04-04T08:16:58.352Z,25
2017-04-04T08:17:57.799Z,25
2017-04-04T08:18:58.450Z,25
2017-04-04T08:19:58.206Z,25
2017-04-04T08:20:58.192Z,25
2017-04-04T08:21:58.785Z,25
2017-04-04T08:22:58.562Z,25
2017-04-04T08:23:57.650Z,25
2017-04-04T08:24:58.618Z,25
2017-04-04T08:25:58.636Z,25
2017-04-04T08:26:58.608Z,25
2017-04-04T08:27:58.381Z,25
2017-04-04T08:28:58.406Z,20
2017-04-04T08:29:58.749Z,20
2017-04-04T08:30:58.459Z,20
2017-04-04T08:31:59.055Z,20
2017-04-04T08:32:58.200Z,20
2017-04-04T08:33:58.238Z,20
2017-04-04T08:34:58.569Z,20
2017-04-04T08:35:58.603Z,20
2017-04-04T08:36:58.628Z,20
2017-04-04T08:37:58.908Z,20
2017-04-04T08:38:59.003Z,20
2017-04-04T08:39:58.714Z,20
2017-04-04T08:40:59.052Z,20
2017-04-04T08:41:58.772Z,20
2017-04-04T08:42:59.355Z,25
2017-04-04T08:43:59.136Z,25
2017-04-04T08:44:58.849Z,25
2017-04-04T08:45:58.878Z,25
2017-04-04T08:46:58.907Z,25
2017-04-04T08:47:58.872Z,25
2017-04-04T08:48:58.644Z,25
2017-04-04T08:49:59.298Z,25
2017-04-04T08:50:59.333Z,25
2017-04-04T08:51:59.043Z,25
2017-04-04T08:52:59.324Z,30
2017-04-04T08:53:59.399Z,40
2017-04-04T08:54:59.433Z,50
2017-04-04T08:55:59.151Z,55
2017-04-04T08:56:59.179Z,60
2017-04-04T08:57:59.764Z,65
2017-04-04T08:58:59.547Z,65
2017-04-04T08:59:59.593Z,65
2017-04-04T09:00:59.295Z,60
2017-04-04T09:01:59.628Z,55
2017-04-04T09:02:59.595Z,50
2017-04-04T09:03:59.368Z,50
2017-04-04T09:04:59.396Z,50
2017-04-04T09:05:59.736Z,45
2017-04-04T09:06:59.146Z,45
2017-04-04T09:08:00.042Z,45
2017-04-04T09:08:58.907Z,45
2017-04-04T09:09:59.533Z,45
2017-04-04T09:10:59.564Z,45
2017-04-04T09:11:59.598Z,45
2017-04-04T09:12:59.854Z,40
2017-04-04T09:13:59.331Z,45
2017-04-04T09:15:00.153Z,40
2017-04-04T09:16:00.021Z,40
2017-04-04T09:17:00.038Z,40
2017-04-04T09:18:00.311Z,40
2017-04-04T09:18:59.475Z,35
2017-04-04T09:19:59.811Z,35
2017-04-04T09:20:59.839Z,35
2017-04-04T09:21:59.865Z,35
2017-04-04T09:23:00.504Z,30
2017-04-04T09:24:00.235Z,30
2017-04-04T09:24:59.955Z,30
2017-04-04T09:25:59.347Z,30
2017-04-04T09:27:00.324Z,30
2017-04-04T09:28:00.598Z,30
2017-04-04T09:28:59.755Z,30
2017-04-04T09:30:00.088Z,30
2017-04-04T09:31:00.441Z,30
2017-04-04T09:31:59.840Z,30
2017-04-04T09:33:00.422Z,30
2017-04-04T09:34:00.517Z,30
2017-04-04T09:35:00.223Z,30
2017-04-04T09:36:00.575Z,30
2017-04-04T09:37:00.608Z,30
2017-04-04T09:38:00.566Z,30
2017-04-04T09:39:00.390Z,30
2017-04-04T09:40:00.370Z,30
2017-04-04T09:41:00.403Z,30
2017-04-04T09:42:00.740Z,30
2017-04-04T09:43:01.017Z,30
2017-04-04T09:44:00.181Z,30
2017-04-04T09:45:00.824Z,30
2017-04-04T09:46:00.544Z,30
2017-04-04T09:47:00.257Z,30
2017-04-04T09:48:00.841Z,30
2017-04-04T09:49:00.306Z,30
2017-04-04T09:50:00.954Z,30
2017-04-04T09:51:00.370Z,30
2017-04-04T09:52:00.404Z,30
2017-04-04T09:53:00.992Z,30
2017-04-04T09:54:01.068Z,30
2017-04-04T09:55:01.097Z,30
2017-04-04T09:56:00.500Z,30
2017-04-04T09:57:00.840Z,30
2017-04-04T09:58:01.128Z,30
2017-04-04T09:59:00.909Z,30
2017-04-04T10:00:00.941Z,30
2017-04-04T10:01:00.957Z,30
2017-04-04T10:02:00.358Z,30
2017-04-04T10:03:01.279Z,30
2017-04-04T10:04:00.732Z,30
2017-04-04T10:05:01.382Z,30
2017-04-04T10:06:01.411Z,30
2017-04-04T10:07:01.116Z,30
2017-04-04T10:08:01.403Z,30
2017-04-04T10:09:01.487Z,30
2017-04-04T10:10:01.529Z,30
2017-04-04T10:11:01.549Z,30
2017-04-04T10:12:01.589Z,30
2017-04-04T10:13:01.858Z,30
2017-04-04T10:14:01.316Z,35
2017-04-04T10:15:01.665Z,35
2017-04-04T10:16:01.380Z,35
2017-04-04T10:17:01.394Z,35
2017-04-04T10:18:02.007Z,35
2017-04-04T10:19:01.463Z,35
2017-04-04T10:20:01.805Z,35
2017-04-04T10:21:01.832Z,35
2017-04-04T10:22:01.542Z,35
2017-04-04T10:23:01.827Z,35
2017-04-04T10:24:01.906Z,35
2017-04-04T10:25:01.956Z,35
2017-04-04T10:26:01.036Z,35
2017-04-04T10:27:02.005Z,40
2017-04-04T10:28:01.974Z,40
2017-04-04T10:29:01.743Z,40
2017-04-04T10:30:01.776Z,40
2017-04-04T10:31:02.121Z,40
2017-04-04T10:32:02.136Z,40
2017-04-04T10:33:02.417Z,40
2017-04-04T10:34:01.563Z,40
2017-04-04T10:35:02.222Z,45
2017-04-04T10:36:01.944Z,45
2017-04-04T10:37:01.661Z,45
2017-04-04T10:38:02.253Z,45
2017-04-04T10:39:02.341Z,45
2017-04-04T10:40:02.062Z,45
2017-04-04T10:41:02.084Z,55
2017-04-04T10:42:02.108Z,65
2017-04-04T10:43:02.688Z,65
2017-04-04T10:44:01.862Z,60
2017-04-04T10:45:02.510Z,60
2017-04-04T10:46:02.226Z,60
2017-04-04T10:47:01.943Z,30
2017-04-04T10:48:02.523Z,40
2017-04-04T10:49:02.309Z,45
2017-04-04T10:50:02.645Z,70
2017-04-04T10:51:02.678Z,75
2017-04-04T10:52:02.394Z,70
2017-04-04T10:53:02.360Z,65
2017-04-04T10:54:02.764Z,45
2017-04-04T10:55:02.482Z,40
2017-04-04T10:56:02.510Z,55
2017-04-04T10:57:02.231Z,30
2017-04-04T10:58:02.503Z,30
2017-04-04T10:59:02.589Z,25
2017-04-04T11:00:02.313Z,25
2017-04-04T11:01:02.334Z,25
2017-04-04T11:02:02.674Z,25
2017-04-04T11:03:03.274Z,25
2017-04-04T11:04:03.048Z,25
2017-04-04T11:05:02.765Z,45
2017-04-04T11:06:02.482Z,55
2017-04-04T11:07:03.130Z,55
2017-04-04T11:08:03.414Z,60
2017-04-04T11:09:03.191Z,70
2017-04-04T11:10:03.212Z,80
2017-04-04T11:11:02.929Z,90
2017-04-04T11:12:03.273Z,90
2017-04-04T11:13:02.372Z,90
2017-04-04T11:14:03.272Z,100
2017-04-04T11:15:03.094Z,110
2017-04-04T11:16:03.395Z,80
2017-04-04T11:17:03.107Z,45
2017-04-04T11:18:03.458Z,45
2017-04-04T11:19:03.720Z,45
2017-04-04T11:20:03.508Z,40
2017-04-04T11:21:02.909Z,95
2017-04-04T11:22:02.938Z,65
2017-04-04T11:23:03.277Z,30
2017-04-04T11:24:03.555Z,25
2017-04-04T11:25:03.057Z,25
2017-04-04T11:26:03.410Z,20
2017-04-04T11:27:02.765Z,20
2017-04-04T11:28:03.734Z,25
2017-04-04T11:29:03.387Z,30
2017-04-04T11:30:03.188Z,90
2017-04-04T11:31:03.189Z,125
2017-04-04T11:32:03.533Z,125
2017-04-04T11:33:03.882Z,125
2017-04-04T11:34:03.837Z,125
2017-04-04T11:35:03.619Z,125
2017-04-04T11:36:03.965Z,130
2017-04-04T11:37:03.984Z,130
2017-04-04T11:38:04.017Z,130
2017-04-04T11:39:03.669Z,140
2017-04-04T11:40:03.759Z,150
2017-04-04T11:41:03.477Z,155
2017-04-04T11:42:03.507Z,160
2017-04-04T11:43:04.162Z,170
2017-04-04T11:44:03.812Z,190
2017-04-04T11:45:04.219Z,205
2017-04-04T11:46:04.248Z,215
2017-04-04T11:47:04.272Z,50
2017-04-04T11:48:03.676Z,35
2017-04-04T11:49:04.576Z,35
2017-04-04T11:50:04.047Z,40
2017-04-04T11:51:04.390Z,40
2017-04-04T11:52:04.414Z,40
2017-04-04T11:53:04.136Z,40
2017-04-04T11:54:04.721Z,40
2017-04-04T11:55:04.190Z,45
2017-04-04T11:56:03.909Z,50
2017-04-04T11:57:03.942Z,50
2017-04-04T11:58:04.280Z,50
2017-04-04T11:59:04.560Z,50
2017-04-04T12:00:04.337Z,55
2017-04-04T12:01:04.677Z,55
2017-04-04T12:02:04.703Z,55
2017-04-04T12:03:04.418Z,60
2017-04-04T12:04:04.704Z,65
2017-04-04T12:05:04.169Z,70
2017-04-04T12:06:04.193Z,235
2017-04-04T12:07:04.234Z,255
2017-04-04T12:08:04.567Z,250
2017-04-04T12:09:05.157Z,250
2017-04-04T12:10:04.313Z,40
2017-04-04T12:11:04.661Z,40
2017-04-04T12:12:04.726Z,40
2017-04-04T12:13:04.735Z,40
2017-04-04T12:14:04.999Z,40
2017-04-04T12:15:05.088Z,45
2017-04-04T12:16:05.109Z,50
2017-04-04T12:17:05.141Z,50
2017-04-04T12:18:05.167Z,55
2017-04-04T12:19:05.143Z,55
2017-04-04T12:20:04.936Z,60
2017-04-04T12:21:04.949Z,65
2017-04-04T12:22:05.293Z,70
2017-04-04T12:23:05.010Z,70
2017-04-04T12:24:05.607Z,65
2017-04-04T12:25:05.388Z,65
2017-04-04T12:26:04.792Z,65
2017-04-04T12:27:04.509Z,85
2017-04-04T12:28:05.482Z,65
2017-04-04T12:29:05.434Z,60
2017-04-04T12:30:05.218Z,55
2017-04-04T12:31:05.245Z,55
2017-04-04T12:32:04.332Z,55
2017-04-04T12:33:04.685Z,55
2017-04-04T12:34:05.942Z,85
2017-04-04T12:35:05.671Z,145
2017-04-04T12:36:05.388Z,165
2017-04-04T12:37:05.105Z,160
2017-04-04T12:38:05.437Z,160
2017-04-04T12:39:05.786Z,155
2017-04-04T12:40:05.518Z,155
2017-04-04T12:41:05.540Z,155
2017-04-04T12:42:05.587Z,165
2017-04-04T12:43:05.917Z,180
2017-04-04T12:44:05.886Z,190
2017-04-04T12:45:05.971Z,185
2017-04-04T12:46:05.375Z,170
2017-04-04T12:47:05.725Z,155
2017-04-04T12:48:06.068Z,145
2017-04-04T12:49:06.042Z,50
2017-04-04T12:50:05.188Z,45
2017-04-04T12:51:06.151Z,30
2017-04-04T12:52:06.192Z,30
2017-04-04T12:53:05.905Z,30
2017-04-04T12:54:06.550Z,35
2017-04-04T12:55:06.274Z,40
2017-04-04T12:56:06.004Z,45
2017-04-04T12:57:06.032Z,50
2017-04-04T12:58:06.417Z,55
2017-04-04T12:59:05.773Z,55
2017-04-04T13:00:06.063Z,70
2017-04-04T13:01:06.459Z,50
2017-04-04T13:02:06.186Z,50
2017-04-04T13:03:06.572Z,45
2017-04-04T13:04:06.558Z,40
2017-04-04T13:05:06.214Z,40
2017-04-04T13:06:06.614Z,40
2017-04-04T13:07:06.018Z,40
2017-04-04T13:08:06.362Z,45
2017-04-04T13:09:06.077Z,115
2017-04-04T13:10:06.353Z,150
2017-04-04T13:11:06.754Z,155
2017-04-04T13:12:06.786Z,155
2017-04-04T13:13:06.835Z,160
2017-04-04T13:14:06.856Z,155
2017-04-04T13:15:06.817Z,150
2017-04-04T13:16:06.919Z,145
2017-04-04T13:17:06.640Z,140
2017-04-04T13:18:06.359Z,135
2017-04-04T13:19:06.380Z,125
2017-04-04T13:20:06.981Z,125
2017-04-04T13:21:06.745Z,120
2017-04-04T13:22:07.098Z,125
2017-04-04T13:23:06.823Z,125
2017-04-04T13:24:06.848Z,130
2017-04-04T13:25:06.824Z,130
2017-04-04T13:26:07.274Z,140
2017-04-04T13:27:06.939Z,150
2017-04-04T13:28:06.975Z,115
2017-04-04T13:29:07.314Z,85
2017-04-04T13:30:06.678Z,75
2017-04-04T13:31:07.381Z,70
2017-04-04T13:32:06.782Z,55
2017-04-04T13:33:07.137Z,50
2017-04-04T13:34:07.475Z,50
2017-04-04T13:35:07.488Z,45
2017-04-04T13:36:07.221Z,75
2017-04-04T13:37:06.942Z,40
2017-04-04T13:38:07.303Z,35
2017-04-04T13:39:07.627Z,30
2017-04-04T13:40:07.275Z,25
2017-04-04T13:41:07.704Z,25
2017-04-04T13:42:07.714Z,25
2017-04-04T13:43:07.754Z,25
2017-04-04T13:44:07.797Z,25
2017-04-04T13:45:08.068Z,30
2017-04-04T13:46:07.261Z,30
2017-04-04T13:47:07.557Z,35
2017-04-04T13:48:07.899Z,35
2017-04-04T13:49:07.634Z,35
2017-04-04T13:50:07.604Z,35
2017-04-04T13:51:07.676Z,35
2017-04-04T13:52:07.710Z,40
2017-04-04T13:53:07.810Z,80
2017-04-04T13:54:07.771Z,45
2017-04-04T13:55:08.051Z,95
2017-04-04T13:56:07.841Z,90
2017-04-04T13:57:08.180Z,100
2017-04-04T13:58:07.912Z,100
2017-04-04T13:59:07.624Z,100
2017-04-04T14:00:08.520Z,95
2017-04-04T14:01:08.300Z,95
2017-04-04T14:02:08.016Z,95
2017-04-04T14:03:07.742Z,95
2017-04-04T14:04:08.386Z,95
2017-04-04T14:05:08.671Z,95
2017-04-04T14:06:08.457Z,95
2017-04-04T14:07:08.493Z,95
2017-04-04T14:08:08.198Z,95
2017-04-04T14:09:08.231Z,100
2017-04-04T14:10:08.555Z,100
2017-04-04T14:11:08.600Z,95
2017-04-04T14:12:08.317Z,95
2017-04-04T14:13:08.357Z,95
2017-04-04T14:14:08.069Z,95
2017-04-04T14:15:08.667Z,95
2017-04-04T14:16:08.752Z,95
2017-04-04T14:17:08.165Z,100
2017-04-04T14:18:08.817Z,105
2017-04-04T14:19:08.849Z,110
2017-04-04T14:20:08.818Z,110
2017-04-04T14:21:08.602Z,110
2017-04-04T14:22:08.937Z,105
2017-04-04T14:23:08.664Z,100
2017-04-04T14:24:08.689Z,95
2017-04-04T14:25:09.291Z,90
2017-04-04T14:26:08.752Z,90
2017-04-04T14:27:08.472Z,90
2017-04-04T14:28:08.496Z,90